Time;durP1;ratioP1;P1;durP2;ratioP2;P2;SDS_P1;SDS_P2;PMS_P1;PMS_P2;Temp;Humidity;BMP_temperature;BMP_pressure;BME280_temperature;BME280_humidity;BME280_pressure;Samples;Min_cycle;Max_cycle;Signal;HPM_P1;HPM_P2
2021/10/10 00:02:05;;;;;;;21.98;12.07;;;5.20;99.90;;;;;;4830423;29;20553;-88
2021/10/10 00:04:32;;;;;;;20.77;11.13;;;5.10;99.90;;;;;;4862126;29;20056;-88
2021/10/10 00:06:57;;;;;;;17.27;11.25;;;5.10;99.90;;;;;;4834017;29;20113;-88
2021/10/10 00:09:23;;;;;;;23.75;11.27;;;5.00;99.90;;;;;;4861236;29;20386;-88
2021/10/10 00:11:49;;;;;;;20.70;11.90;;;5.00;99.90;;;;;;4831163;29;20048;-88
2021/10/10 00:14:15;;;;;;;24.75;12.52;;;4.90;99.90;;;;;;4839651;29;20404;-88
2021/10/10 00:16:41;;;;;;;21.33;11.57;;;4.90;99.90;;;;;;4831623;29;20053;-89
2021/10/10 00:19:07;;;;;;;17.33;11.55;;;4.90;99.90;;;;;;4861949;29;20064;-88
2021/10/10 00:21:33;;;;;;;24.15;11.38;;;4.80;99.90;;;;;;4861671;29;20077;-88
2021/10/10 00:23:58;;;;;;;26.38;11.75;;;4.80;99.90;;;;;;4816748;29;20113;-89
2021/10/10 00:26:24;;;;;;;23.80;12.88;;;4.80;99.90;;;;;;4816885;29;20081;-89
2021/10/10 00:28:50;;;;;;;20.02;12.55;;;4.80;99.90;;;;;;4845980;29;20471;-89
2021/10/10 00:31:15;;;;;;;19.77;12.13;;;4.80;99.90;;;;;;4829383;29;20053;-89
2021/10/10 00:33:41;;;;;;;21.42;11.82;;;4.70;99.90;;;;;;4861560;29;20055;-89
2021/10/10 00:36:07;;;;;;;23.67;12.45;;;4.80;99.90;;;;;;4828433;29;20094;-88
2021/10/10 00:38:33;;;;;;;19.60;11.90;;;4.70;99.90;;;;;;4844906;29;20135;-88
2021/10/10 00:40:58;;;;;;;20.33;12.00;;;4.70;99.90;;;;;;4862060;29;20049;-89
2021/10/10 00:43:24;;;;;;;18.88;12.20;;;4.60;99.90;;;;;;4871719;29;20048;-89
2021/10/10 00:45:51;;;;;;;23.00;13.15;;;4.60;99.90;;;;;;4847323;29;20033;-89
2021/10/10 00:48:18;;;;;;;19.42;12.45;;;4.60;99.90;;;;;;4841797;29;20049;-89
2021/10/10 00:50:44;;;;;;;29.48;12.85;;;4.50;99.90;;;;;;4828715;29;20421;-89
2021/10/10 00:53:14;;;;;;;27.45;14.38;;;4.50;99.90;;;;;;4840577;29;20053;-89
2021/10/10 00:55:42;;;;;;;18.83;12.85;;;4.50;99.90;;;;;;4861389;29;20105;-89
2021/10/10 00:58:09;;;;;;;22.58;13.32;;;4.50;99.90;;;;;;4866440;29;20054;-89
2021/10/10 01:00:35;;;;;;;23.17;12.60;;;4.40;99.90;;;;;;4875312;29;20129;-89
2021/10/10 01:03:01;;;;;;;27.42;12.55;;;4.40;99.90;;;;;;4846571;29;20049;-89
2021/10/10 01:05:28;;;;;;;21.90;12.38;;;4.40;99.90;;;;;;4835906;29;20049;-89
2021/10/10 01:07:53;;;;;;;25.35;14.57;;;4.40;99.90;;;;;;4861377;29;20064;-89
2021/10/10 01:10:20;;;;;;;24.55;13.82;;;4.30;99.90;;;;;;4858783;29;20061;-91
2021/10/10 01:12:46;;;;;;;25.73;15.23;;;4.40;99.90;;;;;;4858486;29;20136;-89
2021/10/10 01:15:12;;;;;;;26.95;14.27;;;4.30;99.90;;;;;;4828755;29;20079;-90
2021/10/10 01:17:39;;;;;;;24.85;13.95;;;4.30;99.90;;;;;;4842856;29;20049;-89
2021/10/10 01:20:07;;;;;;;26.15;14.00;;;4.40;99.90;;;;;;4859045;29;20049;-89
2021/10/10 01:22:33;;;;;;;24.27;14.15;;;4.40;99.90;;;;;;4838057;29;20064;-91
2021/10/10 01:24:58;;;;;;;26.85;14.13;;;4.40;99.90;;;;;;4813122;29;20057;-90
2021/10/10 01:27:25;;;;;;;25.35;14.55;;;4.30;99.90;;;;;;4834359;29;20113;-89
2021/10/10 01:29:50;;;;;;;30.10;15.73;;;4.30;99.90;;;;;;4842758;29;20137;-90
2021/10/10 01:32:16;;;;;;;29.25;15.13;;;4.30;99.90;;;;;;4832580;29;20422;-90
2021/10/10 01:34:46;;;;;;;25.55;13.73;;;4.30;99.90;;;;;;4871515;29;20057;-90
2021/10/10 01:37:13;;;;;;;28.00;14.93;;;4.30;99.90;;;;;;4843316;29;20182;-89
2021/10/10 01:39:39;;;;;;;29.17;14.13;;;4.30;99.90;;;;;;4842724;29;20053;-89
2021/10/10 01:42:06;;;;;;;27.67;14.15;;;4.30;99.90;;;;;;4843013;29;20637;-89
2021/10/10 01:44:31;;;;;;;26.55;15.02;;;4.30;99.90;;;;;;4834699;29;20091;-91
2021/10/10 01:46:58;;;;;;;26.83;14.48;;;4.20;99.90;;;;;;4857978;29;20085;-90
2021/10/10 01:49:23;;;;;;;21.83;13.65;;;4.30;99.90;;;;;;4858018;29;20060;-89
2021/10/10 01:51:49;;;;;;;25.42;14.25;;;4.20;99.90;;;;;;4808932;29;20053;-89
2021/10/10 01:54:15;;;;;;;21.35;13.63;;;4.20;99.90;;;;;;4819317;29;20090;-89
2021/10/10 01:56:40;;;;;;;26.00;14.68;;;4.10;99.90;;;;;;4827407;29;20417;-89
2021/10/10 01:59:06;;;;;;;26.15;14.38;;;4.20;99.90;;;;;;4809546;29;20044;-89
2021/10/10 02:01:32;;;;;;;24.48;14.80;;;4.10;99.90;;;;;;4839889;29;20053;-91
2021/10/10 02:03:58;;;;;;;26.10;15.63;;;4.00;99.90;;;;;;4842200;29;20118;-89
2021/10/10 02:06:24;;;;;;;26.00;15.45;;;4.00;99.90;;;;;;4833055;29;20042;-89
2021/10/10 02:08:49;;;;;;;25.98;14.43;;;4.10;99.90;;;;;;4855524;29;20101;-89
2021/10/10 02:11:15;;;;;;;26.83;14.82;;;4.10;99.90;;;;;;4859421;29;20065;-89
2021/10/10 02:13:41;;;;;;;33.45;15.93;;;4.00;99.90;;;;;;4868592;29;20088;-88
2021/10/10 02:16:06;;;;;;;24.08;14.35;;;3.90;99.90;;;;;;4862732;29;20105;-89
2021/10/10 02:18:32;;;;;;;31.85;15.27;;;3.90;99.90;;;;;;4815606;29;20049;-88
2021/10/10 02:20:58;;;;;;;25.08;14.65;;;3.90;99.90;;;;;;4845402;29;20489;-89
2021/10/10 02:23:23;;;;;;;30.45;15.57;;;3.90;99.90;;;;;;4845978;29;20101;-88
2021/10/10 02:25:50;;;;;;;28.17;15.70;;;4.10;99.90;;;;;;4868045;29;20113;-89
2021/10/10 02:28:16;;;;;;;29.42;15.25;;;4.10;99.90;;;;;;4846083;29;20051;-90
2021/10/10 02:30:42;;;;;;;33.53;15.85;;;4.00;99.90;;;;;;4846212;29;20053;-91
2021/10/10 02:33:08;;;;;;;31.23;15.07;;;4.00;99.90;;;;;;4843318;29;20085;-90
2021/10/10 02:35:33;;;;;;;29.27;15.18;;;3.90;99.90;;;;;;4840959;29;20097;-89
2021/10/10 02:37:59;;;;;;;37.75;16.15;;;3.90;99.90;;;;;;4860616;29;20053;-89
2021/10/10 02:40:25;;;;;;;27.60;15.55;;;3.90;99.90;;;;;;4845743;29;20064;-88
2021/10/10 02:42:50;;;;;;;30.83;15.48;;;3.90;99.90;;;;;;4865487;29;20480;-89
2021/10/10 02:45:16;;;;;;;25.95;15.18;;;3.80;99.90;;;;;;4864179;29;20056;-88
2021/10/10 02:47:42;;;;;;;30.70;15.32;;;3.90;99.90;;;;;;4860237;29;20037;-90
2021/10/10 02:50:08;;;;;;;33.80;15.52;;;3.80;99.90;;;;;;4827124;29;20103;-89
2021/10/10 02:52:34;;;;;;;31.58;15.30;;;3.80;99.90;;;;;;4837108;29;20142;-89
2021/10/10 02:55:01;;;;;;;24.85;14.85;;;3.80;99.90;;;;;;4860116;29;20502;-88
2021/10/10 02:57:26;;;;;;;30.40;16.27;;;3.80;99.90;;;;;;4845814;29;20053;-89
2021/10/10 02:59:52;;;;;;;21.67;13.40;;;3.70;99.90;;;;;;4829704;29;20101;-89
2021/10/10 03:02:18;;;;;;;29.55;14.68;;;3.70;99.90;;;;;;4827184;29;20140;-89
2021/10/10 03:04:43;;;;;;;29.52;14.27;;;3.60;99.90;;;;;;4838347;29;20049;-89
2021/10/10 03:07:09;;;;;;;30.10;14.45;;;3.60;99.90;;;;;;4860766;29;20091;-89
2021/10/10 03:09:35;;;;;;;28.17;14.98;;;3.50;99.90;;;;;;4817368;29;20060;-89
2021/10/10 03:12:00;;;;;;;26.38;15.40;;;3.60;99.90;;;;;;4864002;29;20063;-90
2021/10/10 03:14:26;;;;;;;28.33;14.88;;;3.60;99.90;;;;;;4842934;29;20110;-89
2021/10/10 03:16:52;;;;;;;30.17;15.13;;;3.50;99.90;;;;;;4839971;29;20049;-89
2021/10/10 03:19:17;;;;;;;24.50;14.85;;;3.50;99.90;;;;;;4864107;29;20056;-90
2021/10/10 03:21:43;;;;;;;29.02;14.48;;;3.50;99.90;;;;;;4850103;29;20073;-89
2021/10/10 03:24:09;;;;;;;31.95;13.93;;;3.60;99.90;;;;;;4863039;29;20532;-90
2021/10/10 03:26:35;;;;;;;27.15;15.13;;;3.50;99.90;;;;;;4833749;29;20044;-88
2021/10/10 03:29:01;;;;;;;32.38;14.27;;;3.50;99.90;;;;;;4863557;29;20151;-89
2021/10/10 03:31:27;;;;;;;26.27;14.68;;;3.50;99.90;;;;;;4848580;29;20045;-90
2021/10/10 03:33:53;;;;;;;26.90;14.27;;;3.50;99.90;;;;;;4863709;29;20055;-90
2021/10/10 03:36:19;;;;;;;30.92;14.13;;;3.60;99.90;;;;;;4848871;29;20056;-89
2021/10/10 03:38:45;;;;;;;27.55;14.73;;;3.50;99.90;;;;;;4848236;29;20053;-89
2021/10/10 03:41:12;;;;;;;27.33;15.52;;;3.50;99.90;;;;;;4833151;29;20468;-89
2021/10/10 03:43:38;;;;;;;24.30;14.65;;;3.50;99.90;;;;;;4871561;29;20135;-89
2021/10/10 03:46:04;;;;;;;31.48;15.38;;;3.50;99.90;;;;;;4847805;29;20196;-89
2021/10/10 03:48:30;;;;;;;28.38;15.18;;;3.60;99.90;;;;;;4848091;29;20456;-90
2021/10/10 03:50:55;;;;;;;25.17;14.93;;;3.50;99.90;;;;;;4851951;29;20565;-89
2021/10/10 03:53:29;;;;;;;28.02;15.05;;;3.50;99.90;;;;;;4861053;29;20056;-89
2021/10/10 03:55:54;;;;;;;25.77;15.00;;;3.60;99.90;;;;;;4869126;29;20045;-88
2021/10/10 03:58:20;;;;;;;33.20;16.40;;;3.50;99.90;;;;;;4875618;29;20063;-87
2021/10/10 04:00:46;;;;;;;25.70;16.25;;;3.50;99.90;;;;;;4848583;29;20093;-90
2021/10/10 04:03:13;;;;;;;30.38;16.63;;;3.50;99.90;;;;;;4833255;29;20049;-89
2021/10/10 04:05:43;;;;;;;31.20;16.20;;;3.50;99.90;;;;;;4851267;29;20076;-89
2021/10/10 04:08:09;;;;;;;28.52;15.32;;;3.50;99.90;;;;;;4864067;29;20057;-89
2021/10/10 04:10:35;;;;;;;28.52;14.55;;;3.50;99.90;;;;;;4847664;29;20064;-89
2021/10/10 04:13:01;;;;;;;26.60;14.93;;;3.50;99.90;;;;;;4852278;29;20065;-90
2021/10/10 04:15:26;;;;;;;27.13;14.90;;;3.50;99.90;;;;;;4841530;29;20060;-89
2021/10/10 04:17:52;;;;;;;26.63;15.57;;;3.50;99.90;;;;;;4862793;29;20048;-90
2021/10/10 04:20:18;;;;;;;29.40;15.38;;;3.60;99.90;;;;;;4849248;29;20053;-92
2021/10/10 04:22:45;;;;;;;30.48;15.32;;;3.50;99.90;;;;;;4848940;29;20046;-92
2021/10/10 04:25:11;;;;;;;32.97;15.65;;;3.50;99.90;;;;;;4853901;29;20049;-91
2021/10/10 04:27:38;;;;;;;30.30;14.90;;;3.50;99.90;;;;;;4875387;29;20056;-90
2021/10/10 04:30:06;;;;;;;28.45;14.73;;;3.50;99.90;;;;;;4844112;29;20056;-90
2021/10/10 04:32:31;;;;;;;27.42;16.55;;;3.50;99.90;;;;;;4856381;29;20087;-89
2021/10/10 04:34:57;;;;;;;30.23;17.25;;;3.50;99.90;;;;;;4842310;29;20097;-88
2021/10/10 04:37:23;;;;;;;25.58;14.98;;;3.60;99.90;;;;;;4838280;29;20060;-88
2021/10/10 04:39:48;;;;;;;32.65;16.30;;;3.60;99.90;;;;;;4861876;29;20137;-88
2021/10/10 04:42:14;;;;;;;27.85;16.10;;;3.60;99.90;;;;;;4878107;29;20056;-88
2021/10/10 04:44:40;;;;;;;31.30;16.25;;;3.60;99.90;;;;;;4862780;29;20056;-88
2021/10/10 04:47:06;;;;;;;29.00;17.13;;;3.60;99.90;;;;;;4862665;29;20045;-89
2021/10/10 04:49:33;;;;;;;27.58;16.92;;;3.70;99.90;;;;;;4862941;29;20056;-89
2021/10/10 04:51:58;;;;;;;27.80;15.23;;;3.60;99.90;;;;;;4832428;29;20458;-88
2021/10/10 04:54:24;;;;;;;24.30;15.70;;;3.60;99.90;;;;;;4866803;29;20053;-89
2021/10/10 04:56:50;;;;;;;33.42;16.15;;;3.60;99.90;;;;;;4862496;29;20520;-91
2021/10/10 04:59:16;;;;;;;27.80;15.30;;;3.50;99.90;;;;;;4863841;29;20152;-91
2021/10/10 05:01:41;;;;;;;26.30;15.73;;;3.50;99.90;;;;;;4864348;29;20060;-90
2021/10/10 05:04:07;;;;;;;25.20;16.23;;;3.40;99.90;;;;;;4847563;29;20051;-89
2021/10/10 05:06:33;;;;;;;29.83;15.65;;;3.50;99.90;;;;;;4872136;29;20049;-89
2021/10/10 05:08:58;;;;;;;28.58;15.75;;;3.50;99.90;;;;;;4878110;29;20087;-90
2021/10/10 05:11:24;;;;;;;25.15;15.40;;;3.60;99.90;;;;;;4863427;29;20089;-89
2021/10/10 05:13:50;;;;;;;29.55;15.90;;;3.50;99.90;;;;;;4868655;29;20056;-92
2021/10/10 05:16:15;;;;;;;30.75;15.95;;;3.50;99.90;;;;;;4851808;29;20496;-90
2021/10/10 05:18:41;;;;;;;27.35;15.73;;;3.50;99.90;;;;;;4855004;29;20080;-89
2021/10/10 05:21:07;;;;;;;28.77;16.17;;;3.50;99.90;;;;;;4846889;29;20045;-89
2021/10/10 05:23:33;;;;;;;25.83;15.60;;;3.60;99.90;;;;;;4846692;29;20117;-90
2021/10/10 05:26:00;;;;;;;29.08;15.43;;;3.50;99.90;;;;;;4831499;29;20053;-90
2021/10/10 05:28:26;;;;;;;23.55;15.15;;;3.40;99.90;;;;;;4847003;29;20048;-89
2021/10/10 05:30:52;;;;;;;30.48;16.80;;;3.50;99.90;;;;;;4861152;29;20041;-93
2021/10/10 05:33:19;;;;;;;34.97;15.63;;;3.50;99.90;;;;;;4862021;29;20112;-90
2021/10/10 05:35:45;;;;;;;30.30;16.02;;;3.50;99.90;;;;;;4847020;29;20049;-89
2021/10/10 05:38:12;;;;;;;27.52;15.73;;;3.40;99.90;;;;;;4842753;29;20160;-89
2021/10/10 05:40:37;;;;;;;28.73;15.27;;;3.30;99.90;;;;;;4853738;29;20053;-89
2021/10/10 05:43:03;;;;;;;33.63;16.33;;;3.40;99.90;;;;;;4861505;29;20574;-89
2021/10/10 05:45:29;;;;;;;26.88;15.98;;;3.30;99.90;;;;;;4869447;29;20055;-90
2021/10/10 05:47:55;;;;;;;29.95;17.27;;;3.40;99.90;;;;;;4850819;29;20044;-88
2021/10/10 05:50:21;;;;;;;29.48;15.73;;;3.40;99.90;;;;;;4851451;29;20056;-89
2021/10/10 05:52:46;;;;;;;23.65;14.52;;;3.30;99.90;;;;;;4838877;29;20057;-89
2021/10/10 05:55:14;;;;;;;25.98;13.63;;;3.30;99.90;;;;;;4879339;29;20055;-89
2021/10/10 05:57:48;;;;;;;20.55;13.27;;;3.30;99.90;;;;;;4870696;29;20152;-89
2021/10/10 06:00:15;;;;;;;25.05;13.70;;;3.10;99.90;;;;;;4873376;29;20152;-88
2021/10/10 06:02:45;;;;;;;25.35;14.98;;;3.10;99.90;;;;;;4861824;29;20075;-88
2021/10/10 06:05:12;;;;;;;24.63;13.98;;;3.10;99.90;;;;;;4861156;29;20076;-88
2021/10/10 06:07:38;;;;;;;35.33;14.07;;;3.10;99.90;;;;;;4842897;29;20062;-89
2021/10/10 06:10:05;;;;;;;26.40;15.13;;;3.10;99.90;;;;;;4871015;29;20061;-88
2021/10/10 06:12:31;;;;;;;26.27;15.10;;;3.00;99.90;;;;;;4846042;29;20064;-88
2021/10/10 06:15:01;;;;;;;26.20;15.05;;;3.00;99.90;;;;;;4856063;29;20057;-89
2021/10/10 06:17:28;;;;;;;30.40;17.08;;;3.10;99.90;;;;;;4845744;29;20084;-89
2021/10/10 06:19:54;;;;;;;33.70;17.10;;;3.10;99.90;;;;;;4845204;29;20455;-91
2021/10/10 06:22:19;;;;;;;36.45;17.60;;;3.20;99.90;;;;;;4870555;29;20045;-90
2021/10/10 06:24:45;;;;;;;33.95;17.83;;;3.20;99.90;;;;;;4816002;29;20053;-90
2021/10/10 06:27:11;;;;;;;27.42;15.85;;;3.30;99.90;;;;;;4865374;29;20062;-89
2021/10/10 06:29:37;;;;;;;30.48;17.02;;;3.30;99.90;;;;;;4874108;29;20439;-89
2021/10/10 06:32:02;;;;;;;34.17;17.88;;;3.30;99.90;;;;;;4845283;29;20053;-88
2021/10/10 06:34:28;;;;;;;32.97;17.50;;;3.40;99.90;;;;;;4845748;29;20048;-88
2021/10/10 06:36:54;;;;;;;34.53;18.83;;;3.40;99.90;;;;;;4830522;29;20101;-91
2021/10/10 06:39:20;;;;;;;35.60;19.00;;;3.50;99.90;;;;;;4830372;29;20124;-88
2021/10/10 06:41:46;;;;;;;35.00;21.55;;;3.70;99.90;;;;;;4860961;29;20500;-89
2021/10/10 06:44:12;;;;;;;38.25;20.58;;;3.70;99.90;;;;;;4847806;29;20049;-87
2021/10/10 06:46:38;;;;;;;40.97;20.70;;;3.90;99.90;;;;;;4833760;29;20060;-88
2021/10/10 06:49:04;;;;;;;35.55;20.23;;;3.90;99.90;;;;;;4874047;29;20049;-89
2021/10/10 06:51:29;;;;;;;31.65;20.50;;;4.00;99.90;;;;;;4864192;29;20052;-88
2021/10/10 06:53:55;;;;;;;37.55;20.67;;;4.10;99.90;;;;;;4864670;29;20053;-91
2021/10/10 06:56:21;;;;;;;33.10;20.15;;;4.20;99.90;;;;;;4864094;29;20048;-88
2021/10/10 06:58:46;;;;;;;34.05;19.60;;;4.30;99.90;;;;;;4864522;29;20056;-88
2021/10/10 07:01:15;;;;;;;33.00;18.85;;;4.40;99.90;;;;;;4849257;29;20106;-88
2021/10/10 07:03:41;;;;;;;35.15;18.80;;;4.50;99.90;;;;;;4832975;29;20045;-89
2021/10/10 07:06:07;;;;;;;33.80;19.33;;;4.60;99.90;;;;;;4863587;29;20128;-88
2021/10/10 07:08:33;;;;;;;29.75;18.50;;;4.70;99.90;;;;;;4833352;29;20060;-88
2021/10/10 07:10:59;;;;;;;43.38;19.10;;;4.70;99.90;;;;;;4847812;29;20179;-90
2021/10/10 07:13:25;;;;;;;33.20;18.42;;;4.80;99.90;;;;;;4834095;29;20409;-89
2021/10/10 07:15:53;;;;;;;31.20;20.13;;;4.90;99.90;;;;;;4834050;29;20100;-89
2021/10/10 07:18:23;;;;;;;33.00;19.88;;;4.90;99.90;;;;;;4850186;29;20528;-90
2021/10/10 07:23:44;;;;;;;31.48;19.27;;;5.10;99.90;;;;;;4868953;29;20045;-88
2021/10/10 07:26:10;;;;;;;31.85;19.20;;;5.10;99.90;;;;;;4824206;29;20061;-88
2021/10/10 07:28:37;;;;;;;34.25;19.15;;;5.20;99.90;;;;;;4833017;29;20045;-89
2021/10/10 07:31:03;;;;;;;30.80;18.52;;;5.20;99.90;;;;;;4863198;29;20060;-88
2021/10/10 07:33:29;;;;;;;31.95;17.77;;;5.30;99.90;;;;;;4861262;29;20636;-88
2021/10/10 07:35:55;;;;;;;31.77;17.90;;;5.40;99.90;;;;;;4849482;29;20052;-89
2021/10/10 07:38:20;;;;;;;26.02;17.00;;;5.50;99.90;;;;;;4817448;29;20057;-88
2021/10/10 07:40:47;;;;;;;31.52;18.33;;;5.50;99.90;;;;;;4848001;29;20056;-89
2021/10/10 07:43:13;;;;;;;32.38;16.55;;;5.60;99.90;;;;;;4832394;29;20056;-89
2021/10/10 07:45:42;;;;;;;30.38;17.83;;;5.60;99.90;;;;;;4833763;29;20053;-90
2021/10/10 07:48:11;;;;;;;27.70;16.90;;;5.70;99.90;;;;;;4817861;29;20053;-89
2021/10/10 07:50:37;;;;;;;25.58;16.20;;;5.80;99.90;;;;;;4862719;29;20049;-89
2021/10/10 07:53:05;;;;;;;29.02;16.15;;;5.90;99.90;;;;;;4862473;29;20049;-90
2021/10/10 07:55:31;;;;;;;23.25;15.20;;;6.00;99.90;;;;;;4835304;29;20580;-91
2021/10/10 07:57:58;;;;;;;27.92;16.23;;;6.10;99.90;;;;;;4848612;29;20052;-90
2021/10/10 08:00:24;;;;;;;25.55;16.02;;;6.10;99.90;;;;;;4860294;29;20056;-89
2021/10/10 08:02:52;;;;;;;24.92;16.73;;;6.20;99.90;;;;;;4844998;29;20049;-90
2021/10/10 08:05:19;;;;;;;28.30;15.48;;;6.30;99.90;;;;;;4873782;29;20052;-92
2021/10/10 08:07:45;;;;;;;27.15;16.27;;;6.40;99.90;;;;;;4815454;29;20128;-90
2021/10/10 08:10:11;;;;;;;25.60;15.93;;;6.40;99.90;;;;;;4853424;29;20132;-90
2021/10/10 08:12:36;;;;;;;19.88;15.65;;;6.50;99.90;;;;;;4861268;29;20060;-90
2021/10/10 08:15:02;;;;;;;24.10;15.88;;;6.60;99.90;;;;;;4845856;29;20458;-92
2021/10/10 08:17:28;;;;;;;28.10;16.73;;;6.70;99.90;;;;;;4867060;29;20047;-91
2021/10/10 08:19:54;;;;;;;23.35;15.90;;;6.70;99.90;;;;;;4863120;29;20059;-89
2021/10/10 08:22:19;;;;;;;31.73;15.85;;;6.80;99.90;;;;;;4831484;29;20060;-88
2021/10/10 08:24:45;;;;;;;31.85;16.23;;;6.90;99.90;;;;;;4847535;29;20050;-89
2021/10/10 08:27:11;;;;;;;24.40;15.35;;;6.90;99.90;;;;;;4836909;29;20486;-91
2021/10/10 08:29:37;;;;;;;27.25;16.65;;;7.00;99.90;;;;;;4861748;29;20506;-91
2021/10/10 08:32:02;;;;;;;20.92;14.63;;;7.10;99.90;;;;;;4864708;29;20048;-91
2021/10/10 08:34:28;;;;;;;26.48;15.77;;;7.10;99.90;;;;;;4827973;29;20049;-91
2021/10/10 08:36:54;;;;;;;25.63;15.65;;;7.30;99.90;;;;;;4830886;29;20049;-90
2021/10/10 08:39:24;;;;;;;22.65;15.13;;;7.40;99.90;;;;;;4844694;29;20104;-92
2021/10/10 08:41:59;;;;;;;24.35;15.52;;;7.50;99.90;;;;;;4845889;29;20060;-90
2021/10/10 08:44:32;;;;;;;26.42;15.95;;;7.60;99.90;;;;;;4861754;29;20060;-90
2021/10/10 08:47:05;;;;;;;26.55;15.85;;;7.80;99.90;;;;;;4855992;29;20574;-90
2021/10/10 08:49:31;;;;;;;29.48;15.90;;;8.00;99.90;;;;;;4846322;29;20129;-89
2021/10/10 08:51:57;;;;;;;23.55;15.90;;;8.20;99.90;;;;;;4831601;29;20486;-89
2021/10/10 08:54:22;;;;;;;25.95;17.17;;;8.40;99.90;;;;;;4861525;29;20049;-90
2021/10/10 08:56:49;;;;;;;24.27;16.95;;;8.60;99.90;;;;;;4846168;29;20492;-89
2021/10/10 08:59:16;;;;;;;24.35;15.50;;;8.80;99.90;;;;;;4846044;29;20191;-90
2021/10/10 09:01:42;;;;;;;23.73;15.80;;;8.90;99.90;;;;;;4825351;29;20057;-90
2021/10/10 09:04:08;;;;;;;27.92;15.95;;;9.00;99.90;;;;;;4846757;29;20108;-90
2021/10/10 09:06:40;;;;;;;27.52;16.30;;;9.00;99.90;;;;;;4859554;29;20116;-87
2021/10/10 09:09:27;;;;;;;31.55;15.80;;;9.10;99.90;;;;;;4859878;29;20049;-92
2021/10/10 09:12:02;;;;;;;22.48;15.85;;;9.10;99.90;;;;;;4858713;29;20061;-89
2021/10/10 09:14:28;;;;;;;23.42;15.63;;;9.20;99.90;;;;;;4857874;29;20186;-89
2021/10/10 09:17:17;;;;;;;26.58;14.82;;;9.20;99.90;;;;;;4861501;29;20413;-88
2021/10/10 09:19:51;;;;;;;24.25;15.35;;;9.20;99.90;;;;;;4842271;29;20516;-89
2021/10/10 09:22:18;;;;;;;38.65;16.80;;;9.10;99.90;;;;;;4868280;29;20129;-89
2021/10/10 09:24:44;;;;;;;23.77;15.65;;;9.20;99.90;;;;;;4859061;29;20117;-89
2021/10/10 09:27:14;;;;;;;22.70;15.93;;;9.10;99.90;;;;;;4858900;29;20090;-89
2021/10/10 09:29:44;;;;;;;24.40;15.45;;;9.10;99.90;;;;;;4843547;29;20041;-89
2021/10/10 09:32:18;;;;;;;30.63;17.08;;;9.10;99.90;;;;;;4843606;29;20468;-88
2021/10/10 09:34:45;;;;;;;28.95;16.73;;;9.10;99.90;;;;;;4859348;29;20056;-89
2021/10/10 09:37:21;;;;;;;38.50;16.80;;;9.10;99.90;;;;;;4858397;29;20049;-89
2021/10/10 09:42:34;;;;;;;25.65;17.17;;;9.00;99.90;;;;;;4859086;29;20089;-87
2021/10/10 09:47:55;;;;;;;29.05;15.75;;;9.10;99.90;;;;;;4859021;29;20144;-89
2021/10/10 09:50:21;;;;;;;26.45;17.10;;;9.20;99.90;;;;;;4858769;29;20049;-89
2021/10/10 09:53:08;;;;;;;32.75;16.48;;;9.30;99.90;;;;;;4843803;29;20393;-88
2021/10/10 09:55:37;;;;;;;28.27;15.95;;;9.40;99.90;;;;;;4864297;29;20056;-88
2021/10/10 09:58:03;;;;;;;25.90;16.50;;;9.50;99.90;;;;;;4858760;29;20056;-88
2021/10/10 10:00:35;;;;;;;32.00;17.10;;;9.60;99.90;;;;;;4858149;29;20057;-88
2021/10/10 10:03:06;;;;;;;26.10;16.70;;;9.60;99.90;;;;;;4843568;29;20045;-89
2021/10/10 10:05:32;;;;;;;29.60;17.15;;;9.60;99.90;;;;;;4857984;29;20247;-89
2021/10/10 10:07:59;;;;;;;23.00;16.40;;;9.60;99.90;;;;;;4858612;29;20241;-89
2021/10/10 10:10:27;;;;;;;26.27;16.40;;;9.70;99.90;;;;;;4856050;29;20064;-88
2021/10/10 10:12:55;;;;;;;28.13;16.17;;;9.70;99.90;;;;;;4843641;29;20059;-89
2021/10/10 10:15:32;;;;;;;30.38;16.15;;;9.80;99.90;;;;;;4842780;29;20188;-89
2021/10/10 10:17:59;;;;;;;27.58;16.15;;;9.80;99.90;;;;;;4876406;29;20057;-88
2021/10/10 10:20:28;;;;;;;24.48;16.52;;;9.90;99.90;;;;;;4846993;29;20052;-88
2021/10/10 10:22:56;;;;;;;24.33;15.18;;;10.00;99.90;;;;;;4862660;29;20509;-89
2021/10/10 10:25:23;;;;;;;32.17;16.95;;;10.00;99.90;;;;;;4861936;29;20041;-89
2021/10/10 10:27:52;;;;;;;33.55;16.83;;;10.10;99.90;;;;;;4833865;29;20059;-89
2021/10/10 10:30:20;;;;;;;26.90;15.57;;;10.20;99.90;;;;;;4858217;29;20141;-89
2021/10/10 10:32:46;;;;;;;24.73;16.75;;;10.30;99.90;;;;;;4872890;29;20042;-89
2021/10/10 10:35:18;;;;;;;25.05;15.57;;;10.40;99.90;;;;;;4846350;29;20060;-89
2021/10/10 10:37:44;;;;;;;28.85;16.63;;;10.50;99.90;;;;;;4862113;29;20053;-89
2021/10/10 10:40:18;;;;;;;31.15;17.95;;;10.60;99.90;;;;;;4862169;29;20064;-89
2021/10/10 10:42:49;;;;;;;35.00;17.27;;;10.60;99.90;;;;;;4869413;29;20049;-89
2021/10/10 10:45:23;;;;;;;23.73;15.90;;;10.70;99.90;;;;;;4864468;29;20064;-89
2021/10/10 10:47:53;;;;;;;31.58;17.05;;;10.80;99.90;;;;;;4849573;29;20108;-90
2021/10/10 10:50:31;;;;;;;25.15;15.55;;;10.90;99.90;;;;;;4848288;29;20049;-90
2021/10/10 10:53:08;;;;;;;31.45;16.17;;;10.90;99.90;;;;;;4847357;29;20087;-90
2021/10/10 10:55:42;;;;;;;31.13;17.33;;;11.00;99.90;;;;;;4862239;29;20128;-90
2021/10/10 10:58:10;;;;;;;25.05;17.00;;;11.20;99.90;;;;;;4837252;29;20108;-90
2021/10/10 11:00:44;;;;;;;28.13;17.33;;;11.30;99.90;;;;;;4875912;29;20049;-90
2021/10/10 11:03:25;;;;;;;31.25;16.70;;;11.30;99.90;;;;;;4863492;29;20075;-90
2021/10/10 11:05:54;;;;;;;34.50;16.42;;;11.40;99.90;;;;;;4861347;29;20052;-90
2021/10/10 11:08:22;;;;;;;27.58;17.83;;;11.50;99.90;;;;;;4861021;29;20049;-90
2021/10/10 11:11:01;;;;;;;29.27;17.38;;;11.70;99.90;;;;;;4851173;29;20097;-90
2021/10/10 11:13:28;;;;;;;24.02;16.55;;;11.70;99.90;;;;;;4860746;29;20490;-90
2021/10/10 11:16:03;;;;;;;33.20;17.27;;;11.70;99.90;;;;;;4861742;29;20049;-90
2021/10/10 11:18:29;;;;;;;34.42;17.23;;;11.80;99.90;;;;;;4868016;29;20045;-90
2021/10/10 11:20:59;;;;;;;33.17;16.95;;;11.90;99.90;;;;;;4830711;29;20080;-90
2021/10/10 11:23:27;;;;;;;;;;;12.00;99.90;;;;;;4831520;29;20620;-90
2021/10/10 11:25:55;;;;;;;36.08;17.02;;;12.00;99.90;;;;;;4846715;29;19975;-90
2021/10/10 11:28:40;;;;;;;28.58;16.58;;;12.10;99.90;;;;;;4827576;29;20152;-90
2021/10/10 11:31:17;;;;;;;33.22;17.13;;;12.30;99.90;;;;;;4860651;29;20488;-90
2021/10/10 11:33:55;;;;;;;23.92;14.98;;;12.30;99.90;;;;;;4846442;29;20060;-90
2021/10/10 11:36:34;;;;;;;27.75;17.20;;;12.40;99.90;;;;;;4858171;29;20041;-90
2021/10/10 11:39:01;;;;;;;32.08;17.95;;;12.50;99.90;;;;;;4861913;29;20405;-90
2021/10/10 11:41:27;;;;;;;26.90;16.58;;;12.50;99.90;;;;;;4834317;29;20049;-91
2021/10/10 11:44:02;;;;;;;26.15;16.50;;;12.60;99.90;;;;;;4846642;29;20758;-91
2021/10/10 11:46:55;;;;;;;24.73;16.08;;;12.70;99.90;;;;;;4871506;29;20052;-92
2021/10/10 11:49:31;;;;;;;25.77;15.38;;;12.80;99.90;;;;;;4865398;29;20049;-92
2021/10/10 11:54:59;;;;;;;29.33;16.33;;;12.90;99.90;;;;;;4847205;29;20056;-92
2021/10/10 11:57:26;;;;;;;25.65;16.05;;;13.00;99.90;;;;;;4860981;29;20413;-93
2021/10/10 11:59:57;;;;;;;29.23;16.42;;;13.00;99.90;;;;;;4846246;29;20041;-92
2021/10/10 12:02:32;;;;;;;27.83;16.35;;;12.90;99.90;;;;;;4845848;29;20413;-92
2021/10/10 12:05:08;;;;;;;29.73;17.45;;;12.90;99.90;;;;;;4846063;29;20060;-92
2021/10/10 12:07:35;;;;;;;28.27;18.15;;;12.70;99.90;;;;;;4845612;29;20064;-93
2021/10/10 12:10:03;;;;;;;26.42;15.98;;;12.70;99.90;;;;;;4861522;29;20061;-92
2021/10/10 12:12:29;;;;;;;24.48;15.38;;;12.60;99.90;;;;;;4863045;29;20085;-92
2021/10/10 12:14:57;;;;;;;25.42;16.92;;;12.60;99.90;;;;;;4846293;29;20079;-92
2021/10/10 12:17:26;;;;;;;34.05;17.35;;;12.70;99.90;;;;;;4845369;29;20057;-92
2021/10/10 12:19:53;;;;;;;27.08;15.77;;;12.70;99.90;;;;;;4861167;29;20080;-93
2021/10/10 12:22:18;;;;;;;27.75;17.73;;;12.80;99.90;;;;;;4860994;29;20080;-92
2021/10/10 12:24:45;;;;;;;27.95;17.42;;;12.90;99.90;;;;;;4845797;29;20103;-92
2021/10/10 12:27:22;;;;;;;32.72;17.30;;;13.00;99.90;;;;;;4868242;29;20045;-91
2021/10/10 12:29:48;;;;;;;31.40;17.13;;;13.20;99.90;;;;;;4860926;29;20045;-92
2021/10/10 12:32:23;;;;;;;27.77;17.40;;;13.40;99.90;;;;;;4860764;29;20414;-92
2021/10/10 12:34:49;;;;;;;25.63;17.45;;;13.80;99.90;;;;;;4861129;29;20059;-93
2021/10/10 12:37:20;;;;;;;25.17;17.23;;;13.90;99.90;;;;;;4861211;29;20060;-93
2021/10/10 12:39:46;;;;;;;26.58;17.60;;;13.90;99.90;;;;;;4860902;29;20117;-92
2021/10/10 12:42:14;;;;;;;27.25;16.80;;;13.80;99.90;;;;;;4859923;29;20470;-93
2021/10/10 12:44:39;;;;;;;37.97;17.60;;;13.80;99.90;;;;;;4860298;29;20049;-91
2021/10/10 12:47:06;;;;;;;31.45;17.25;;;13.70;99.90;;;;;;4844984;29;20053;-92
2021/10/10 12:49:39;;;;;;;26.80;18.38;;;13.70;99.90;;;;;;4859921;29;20109;-92